Vitoria, Spain
Current Conditions -  °F | °C
As of 10:00 PM on Monday 22 Dec 2014 (Local Time) from LEVT Reporting Station
Few Clouds Few Clouds  
Wind Chill: 30°   Ceiling: Unl
Heat Index: 37°   Visibility: 6mi
Dew Point: 37°   Wind: 12mph
Humidity: 100%   Direction: 220°SW
Pressure: 30.42"   Gusts: NA
Location:  42.85°N, 2.67°W
Report Text: LEVT 222100Z 22010KT 9000 FEW003 03/03 Q1030
Loading
Personal Weather Stations






























Interactive Weather Map New forecast layout! Learn more

10-Day Weather Forecast

Advertisements
Track Severe Weather on mobile